sensor_id;sensor_type;location;lat;lon;timestamp;P1;durP1;ratioP1;P2;durP2;ratioP2
76786;SDS011;65739;51.482;5.702;2023-03-01T17:40:43;9.90;;;6.03;;
76786;SDS011;65739;51.482;5.702;2023-03-01T17:43:13;10.70;;;5.80;;
76786;SDS011;65739;51.482;5.702;2023-03-01T17:45:40;13.45;;;6.35;;
76786;SDS011;65739;51.482;5.702;2023-03-01T17:48:11;10.90;;;6.00;;
76786;SDS011;65739;51.482;5.702;2023-03-01T17:53:40;10.43;;;5.85;;
76786;SDS011;65739;51.482;5.702;2023-03-01T18:00:20;11.13;;;6.30;;
76786;SDS011;65739;51.482;5.702;2023-03-01T18:03:24;9.98;;;6.43;;
76786;SDS011;65739;51.482;5.702;2023-03-01T18:09:26;10.88;;;6.28;;
76786;SDS011;65739;51.482;5.702;2023-03-01T18:29:13;10.00;;;6.07;;
76786;SDS011;65739;51.482;5.702;2023-03-01T18:31:39;13.57;;;5.78;;
76786;SDS011;65739;51.482;5.702;2023-03-01T18:34:20;11.75;;;5.40;;
76786;SDS011;65739;51.482;5.702;2023-03-01T18:40:13;11.32;;;5.53;;
76786;SDS011;65739;51.482;5.702;2023-03-01T18:43:13;8.40;;;5.57;;
76786;SDS011;65739;51.482;5.702;2023-03-01T18:49:45;9.30;;;5.70;;
76786;SDS011;65739;51.482;5.702;2023-03-01T18:52:04;7.90;;;5.30;;
76786;SDS011;65739;51.482;5.702;2023-03-01T18:54:39;9.98;;;5.50;;
76786;SDS011;65739;51.482;5.702;2023-03-01T19:00:44;10.05;;;5.78;;
76786;SDS011;65739;51.482;5.702;2023-03-01T19:03:20;8.18;;;5.80;;
76786;SDS011;65739;51.482;5.702;2023-03-01T19:06:00;10.25;;;6.20;;
76786;SDS011;65739;51.482;5.702;2023-03-01T19:08:45;12.07;;;6.00;;
76786;SDS011;65739;51.482;5.702;2023-03-01T19:18:45;9.95;;;5.13;;
76786;SDS011;65739;51.482;5.702;2023-03-01T19:21:35;8.05;;;5.22;;
76786;SDS011;65739;51.482;5.702;2023-03-01T19:29:44;9.73;;;5.45;;
76786;SDS011;65739;51.482;5.702;2023-03-01T19:32:19;10.38;;;5.55;;
76786;SDS011;65739;51.482;5.702;2023-03-01T19:34:47;11.52;;;6.03;;
76786;SDS011;65739;51.482;5.702;2023-03-01T19:37:14;12.75;;;5.82;;
76786;SDS011;65739;51.482;5.702;2023-03-01T19:40:21;8.93;;;5.95;;
76786;SDS011;65739;51.482;5.702;2023-03-01T19:45:34;9.23;;;5.70;;
76786;SDS011;65739;51.482;5.702;2023-03-01T19:48:26;9.45;;;5.70;;
76786;SDS011;65739;51.482;5.702;2023-03-01T19:50:53;11.70;;;5.38;;
76786;SDS011;65739;51.482;5.702;2023-03-01T19:53:53;10.40;;;5.68;;
76786;SDS011;65739;51.482;5.702;2023-03-01T19:56:19;11.98;;;5.75;;
76786;SDS011;65739;51.482;5.702;2023-03-01T19:59:06;9.88;;;5.53;;
76786;SDS011;65739;51.482;5.702;2023-03-01T20:01:55;10.65;;;5.15;;
76786;SDS011;65739;51.482;5.702;2023-03-01T20:04:24;10.65;;;5.53;;
76786;SDS011;65739;51.482;5.702;2023-03-01T20:06:53;7.70;;;5.13;;
76786;SDS011;65739;51.482;5.702;2023-03-01T20:09:22;10.98;;;5.10;;
76786;SDS011;65739;51.482;5.702;2023-03-01T20:12:00;10.80;;;5.63;;
76786;SDS011;65739;51.482;5.702;2023-03-01T20:15:09;10.52;;;5.00;;
76786;SDS011;65739;51.482;5.702;2023-03-01T20:17:52;9.75;;;5.03;;
76786;SDS011;65739;51.482;5.702;2023-03-01T20:20:18;7.93;;;5.18;;
76786;SDS011;65739;51.482;5.702;2023-03-01T20:26:02;9.82;;;5.22;;
76786;SDS011;65739;51.482;5.702;2023-03-01T20:28:32;7.30;;;4.95;;
76786;SDS011;65739;51.482;5.702;2023-03-01T20:34:40;8.88;;;5.15;;
76786;SDS011;65739;51.482;5.702;2023-03-01T20:40:44;8.30;;;4.95;;
76786;SDS011;65739;51.482;5.702;2023-03-01T20:43:19;8.93;;;5.30;;
76786;SDS011;65739;51.482;5.702;2023-03-01T20:45:55;9.43;;;5.82;;
76786;SDS011;65739;51.482;5.702;2023-03-01T20:54:40;8.25;;;4.97;;
76786;SDS011;65739;51.482;5.702;2023-03-01T21:11:10;8.32;;;4.45;;
76786;SDS011;65739;51.482;5.702;2023-03-01T21:14:07;9.00;;;4.72;;
76786;SDS011;65739;51.482;5.702;2023-03-01T21:19:50;8.80;;;5.05;;
76786;SDS011;65739;51.482;5.702;2023-03-01T21:22:16;9.05;;;5.22;;
76786;SDS011;65739;51.482;5.702;2023-03-01T21:25:03;10.15;;;5.22;;
76786;SDS011;65739;51.482;5.702;2023-03-01T21:27:41;10.48;;;4.63;;
76786;SDS011;65739;51.482;5.702;2023-03-01T21:30:16;8.80;;;5.10;;
76786;SDS011;65739;51.482;5.702;2023-03-01T21:32:44;10.13;;;4.63;;
76786;SDS011;65739;51.482;5.702;2023-03-01T21:35:15;8.52;;;4.60;;
76786;SDS011;65739;51.482;5.702;2023-03-01T21:37:44;9.27;;;4.68;;
76786;SDS011;65739;51.482;5.702;2023-03-01T21:40:12;9.60;;;4.53;;
76786;SDS011;65739;51.482;5.702;2023-03-01T21:49:12;11.43;;;4.75;;
76786;SDS011;65739;51.482;5.702;2023-03-01T21:51:47;10.50;;;4.80;;
76786;SDS011;65739;51.482;5.702;2023-03-01T21:57:18;9.40;;;5.38;;
76786;SDS011;65739;51.482;5.702;2023-03-01T21:59:56;8.73;;;5.10;;
76786;SDS011;65739;51.482;5.702;2023-03-01T22:02:25;9.60;;;5.10;;
76786;SDS011;65739;51.482;5.702;2023-03-01T22:04:55;7.80;;;4.93;;
76786;SDS011;65739;51.482;5.702;2023-03-01T22:07:33;8.15;;;4.78;;
76786;SDS011;65739;51.482;5.702;2023-03-01T22:10:02;7.15;;;4.82;;
76786;SDS011;65739;51.482;5.702;2023-03-01T22:12:37;8.48;;;4.78;;
76786;SDS011;65739;51.482;5.702;2023-03-01T22:15:05;9.52;;;5.45;;
76786;SDS011;65739;51.482;5.702;2023-03-01T22:17:55;8.35;;;5.07;;
76786;SDS011;65739;51.482;5.702;2023-03-01T22:20:42;10.68;;;4.15;;
76786;SDS011;65739;51.482;5.702;2023-03-01T22:23:11;7.00;;;4.53;;
76786;SDS011;65739;51.482;5.702;2023-03-01T22:25:49;8.02;;;4.88;;
76786;SDS011;65739;51.482;5.702;2023-03-01T22:31:13;9.48;;;4.85;;
76786;SDS011;65739;51.482;5.702;2023-03-01T22:33:57;7.85;;;4.78;;
76786;SDS011;65739;51.482;5.702;2023-03-01T22:37:08;8.52;;;5.07;;
76786;SDS011;65739;51.482;5.702;2023-03-01T22:39:43;8.68;;;4.80;;
76786;SDS011;65739;51.482;5.702;2023-03-01T22:42:09;10.93;;;5.15;;
76786;SDS011;65739;51.482;5.702;2023-03-01T22:44:35;10.68;;;5.70;;
76786;SDS011;65739;51.482;5.702;2023-03-01T22:47:01;11.25;;;5.60;;
76786;SDS011;65739;51.482;5.702;2023-03-01T22:49:36;8.02;;;5.13;;
76786;SDS011;65739;51.482;5.702;2023-03-01T22:52:13;13.13;;;5.63;;
76786;SDS011;65739;51.482;5.702;2023-03-01T22:55:25;8.88;;;5.15;;
76786;SDS011;65739;51.482;5.702;2023-03-01T22:57:54;8.40;;;5.05;;
76786;SDS011;65739;51.482;5.702;2023-03-01T23:00:44;9.70;;;4.80;;
76786;SDS011;65739;51.482;5.702;2023-03-01T23:06:33;8.95;;;4.78;;
76786;SDS011;65739;51.482;5.702;2023-03-01T23:16:17;6.93;;;4.70;;
76786;SDS011;65739;51.482;5.702;2023-03-01T23:19:18;9.35;;;4.53;;
76786;SDS011;65739;51.482;5.702;2023-03-01T23:21:48;8.63;;;5.20;;
76786;SDS011;65739;51.482;5.702;2023-03-01T23:24:19;9.27;;;5.38;;
76786;SDS011;65739;51.482;5.702;2023-03-01T23:26:47;9.65;;;4.70;;
76786;SDS011;65739;51.482;5.702;2023-03-01T23:29:19;10.15;;;5.03;;
76786;SDS011;65739;51.482;5.702;2023-03-01T23:31:55;9.27;;;4.75;;
76786;SDS011;65739;51.482;5.702;2023-03-01T23:34:27;11.27;;;4.85;;
76786;SDS011;65739;51.482;5.702;2023-03-01T23:37:05;8.27;;;4.63;;
76786;SDS011;65739;51.482;5.702;2023-03-01T23:39:32;7.95;;;4.63;;
76786;SDS011;65739;51.482;5.702;2023-03-01T23:42:06;10.93;;;5.22;;
76786;SDS011;65739;51.482;5.702;2023-03-01T23:44:35;9.50;;;5.20;;
76786;SDS011;65739;51.482;5.702;2023-03-01T23:47:10;8.10;;;5.10;;
76786;SDS011;65739;51.482;5.702;2023-03-01T23:50:06;8.13;;;4.38;;
76786;SDS011;65739;51.482;5.702;2023-03-01T23:52:37;7.82;;;4.72;;
76786;SDS011;65739;51.482;5.702;2023-03-01T23:55:08;7.80;;;4.50;;
76786;SDS011;65739;51.482;5.702;2023-03-01T23:58:16;10.23;;;5.43;;
